createdAt,value
2024-04-22T00:00:35.757Z,94915.00
2024-04-22T00:01:35.960Z,94915.00
2024-04-22T00:02:35.926Z,94916.00
2024-04-22T00:03:35.992Z,94916.00
2024-04-22T00:04:35.997Z,94914.00
2024-04-22T00:05:35.923Z,94915.00
2024-04-22T00:06:36.101Z,94912.00
2024-04-22T00:07:36.062Z,94913.00
2024-04-22T00:08:36.123Z,94913.00
2024-04-22T00:09:36.136Z,94912.00
2024-04-22T00:10:36.251Z,94911.00
2024-04-22T00:11:36.322Z,94912.00
2024-04-22T00:12:36.250Z,94910.00
2024-04-22T00:13:36.411Z,94911.00
2024-04-22T00:14:36.292Z,94910.00
2024-04-22T00:15:36.408Z,94909.00
2024-04-22T00:16:36.519Z,94908.00
2024-04-22T00:17:36.551Z,94909.00
2024-04-22T00:18:36.504Z,94910.00
2024-04-22T00:19:36.657Z,94909.00
2024-04-22T00:20:36.576Z,94908.00
2024-04-22T00:21:37.136Z,94908.00
2024-04-22T00:22:36.765Z,94909.00
2024-04-22T00:23:36.676Z,94908.00
2024-04-22T00:24:36.678Z,94911.00
2024-04-22T00:25:36.878Z,94911.00
2024-04-22T00:26:37.085Z,94909.00
2024-04-22T00:27:36.810Z,94911.00
2024-04-22T00:28:37.136Z,94912.00
2024-04-22T00:29:36.895Z,94914.00
2024-04-22T00:30:36.882Z,94913.00
2024-04-22T00:31:37.168Z,94915.00
2024-04-22T00:32:37.009Z,94914.00
2024-04-22T00:33:37.112Z,94914.00
2024-04-22T00:34:37.082Z,94916.00
2024-04-22T00:35:37.069Z,94916.00
2024-04-22T00:36:37.074Z,94917.00
2024-04-22T00:37:37.196Z,94917.00
2024-04-22T00:38:37.112Z,94916.00
2024-04-22T00:39:37.145Z,94917.00
2024-04-22T00:40:37.321Z,94916.00
2024-04-22T00:41:37.191Z,94916.00
2024-04-22T00:42:37.205Z,94916.00
2024-04-22T00:43:37.388Z,94915.00
2024-04-22T00:44:37.281Z,94913.00
2024-04-22T00:45:37.298Z,94912.00
2024-04-22T00:46:37.367Z,94910.00
2024-04-22T00:47:37.478Z,94912.00
2024-04-22T00:48:37.444Z,94908.00
2024-04-22T00:49:37.479Z,94907.00
2024-04-22T00:50:37.447Z,94907.00
2024-04-22T00:51:37.471Z,94905.00
2024-04-22T00:52:37.725Z,94907.00
2024-04-22T00:53:37.544Z,94905.00
2024-04-22T00:54:37.560Z,94907.00
2024-04-22T00:55:37.665Z,94906.00
2024-04-22T00:56:37.665Z,94906.00
2024-04-22T00:57:37.657Z,94905.00
2024-04-22T00:58:37.810Z,94906.00
2024-04-22T00:59:37.754Z,94904.00
2024-04-22T01:00:37.771Z,94903.00
2024-04-22T01:01:37.845Z,94904.00
2024-04-22T01:02:37.888Z,94906.00
2024-04-22T01:03:37.923Z,94904.00
2024-04-22T01:04:38.054Z,94907.00
2024-04-22T01:05:37.996Z,94905.00
2024-04-22T01:06:38.049Z,94906.00
2024-04-22T01:07:38.151Z,94907.00
2024-04-22T01:08:38.084Z,94904.00
2024-04-22T01:09:38.126Z,94906.00
2024-04-22T01:10:38.323Z,94905.00
2024-04-22T01:11:38.260Z,94903.00
2024-04-22T01:12:38.249Z,94899.00
2024-04-22T01:13:38.374Z,94902.00
2024-04-22T01:14:38.322Z,94903.00
2024-04-22T01:15:38.317Z,94902.00
2024-04-22T01:16:38.431Z,94901.00
2024-04-22T01:17:38.538Z,94900.00
2024-04-22T01:18:38.531Z,94898.00
2024-04-22T01:19:38.536Z,94898.00
2024-04-22T01:20:38.516Z,94896.00
2024-04-22T01:21:38.602Z,94897.00
2024-04-22T01:22:38.764Z,94896.00
2024-04-22T01:23:38.668Z,94896.00
2024-04-22T01:24:38.704Z,94894.00
2024-04-22T01:25:38.829Z,94894.00
2024-04-22T01:26:38.758Z,94895.00
2024-04-22T01:27:38.744Z,94891.00
2024-04-22T01:28:38.869Z,94892.00
2024-04-22T01:29:38.819Z,94892.00
2024-04-22T01:30:38.840Z,94890.00
2024-04-22T01:31:39.167Z,94889.00
2024-04-22T01:32:38.982Z,94886.00
2024-04-22T01:33:38.970Z,94884.00
2024-04-22T01:34:39.029Z,94883.00
2024-04-22T01:35:39.021Z,94881.00
2024-04-22T01:36:39.123Z,94883.00
2024-04-22T01:37:39.145Z,94880.00
2024-04-22T01:38:39.128Z,94879.00
2024-04-22T01:39:39.220Z,94878.00
2024-04-22T01:40:39.291Z,94878.00
2024-04-22T01:41:39.594Z,94873.00
2024-04-22T01:42:39.297Z,94873.00
2024-04-22T01:43:39.458Z,94875.00
2024-04-22T01:44:39.353Z,94875.00
2024-04-22T01:45:39.394Z,94872.00
2024-04-22T01:46:39.721Z,94872.00
2024-04-22T01:47:39.504Z,94871.00
2024-04-22T01:48:39.464Z,94870.00
2024-04-22T01:49:39.615Z,94868.00
2024-04-22T01:50:39.534Z,94867.00
2024-04-22T01:51:39.636Z,94865.00
2024-04-22T01:52:39.777Z,94866.00
2024-04-22T01:53:39.730Z,94865.00
2024-04-22T01:54:39.779Z,94866.00
2024-04-22T01:55:39.922Z,94864.00
2024-04-22T01:56:39.862Z,94864.00
2024-04-22T01:57:39.984Z,94862.00
2024-04-22T01:58:40.056Z,94861.00
2024-04-22T01:59:40.006Z,94859.00
2024-04-22T02:00:40.027Z,94860.00
2024-04-22T02:01:40.098Z,94860.00
2024-04-22T02:02:40.109Z,94858.00
2024-04-22T02:03:40.153Z,94859.00
2024-04-22T02:04:40.189Z,94860.00
2024-04-22T02:05:40.217Z,94861.00
2024-04-22T02:06:40.244Z,94861.00
2024-04-22T02:07:40.300Z,94862.00
2024-04-22T02:08:40.329Z,94860.00
2024-04-22T02:09:40.369Z,94859.00
2024-04-22T02:10:40.492Z,94860.00
2024-04-22T02:11:40.638Z,94857.00
2024-04-22T02:12:40.458Z,94857.00
2024-04-22T02:13:40.567Z,94857.00
2024-04-22T02:14:40.532Z,94855.00
2024-04-22T02:15:40.562Z,94854.00
2024-04-22T02:16:40.647Z,94855.00
2024-04-22T02:17:40.786Z,94855.00
2024-04-22T02:18:40.658Z,94855.00
2024-04-22T02:19:40.804Z,94853.00
2024-04-22T02:20:40.805Z,94853.00
2024-04-22T02:21:41.122Z,94852.00
2024-04-22T02:22:40.964Z,94851.00
2024-04-22T02:23:40.900Z,94851.00
2024-04-22T02:24:40.854Z,94850.00
2024-04-22T02:25:41.014Z,94848.00
2024-04-22T02:26:41.158Z,94847.00
2024-04-22T02:27:40.995Z,94846.00
2024-04-22T02:28:41.145Z,94845.00
2024-04-22T02:29:41.038Z,94846.00
2024-04-22T02:30:41.083Z,94847.00
2024-04-22T02:31:41.257Z,94846.00
2024-04-22T02:32:42.165Z,94847.00
2024-04-22T02:33:41.236Z,94847.00
2024-04-22T02:34:41.236Z,94847.00
2024-04-22T02:35:41.254Z,94848.00
2024-04-22T02:36:41.303Z,94846.00
2024-04-22T02:37:41.394Z,94844.00
2024-04-22T02:38:41.384Z,94844.00
2024-04-22T02:39:41.414Z,94842.00
2024-04-22T02:40:43.536Z,94842.00
2024-04-22T02:41:41.598Z,94840.00
2024-04-22T02:42:41.660Z,94841.00
2024-04-22T02:43:41.618Z,94840.00
2024-04-22T02:44:41.642Z,94842.00
2024-04-22T02:45:41.681Z,94842.00
2024-04-22T02:46:41.783Z,94841.00
2024-04-22T02:47:41.846Z,94841.00
2024-04-22T02:48:41.788Z,94839.00
2024-04-22T02:49:41.856Z,94842.00
2024-04-22T02:50:41.868Z,94840.00
2024-04-22T02:51:41.950Z,94840.00
2024-04-22T02:52:41.979Z,94840.00
2024-04-22T02:53:42.009Z,94841.00
2024-04-22T02:54:42.033Z,94840.00
2024-04-22T02:55:42.124Z,94843.00
2024-04-22T02:56:42.144Z,94840.00
2024-04-22T02:57:42.220Z,94838.00
2024-04-22T02:58:44.160Z,94837.00
2024-04-22T02:59:42.266Z,94836.00
2024-04-22T03:00:42.316Z,94833.00
2024-04-22T03:01:42.664Z,94834.00
2024-04-22T03:02:42.378Z,94831.00
2024-04-22T03:03:42.442Z,94833.00
2024-04-22T03:04:42.479Z,94831.00
2024-04-22T03:05:42.479Z,94830.00
2024-04-22T03:06:42.553Z,94831.00
2024-04-22T03:07:42.578Z,94830.00
2024-04-22T03:08:42.607Z,94832.00
2024-04-22T03:09:42.668Z,94831.00
2024-04-22T03:10:42.727Z,94831.00
2024-04-22T03:11:42.821Z,94831.00
2024-04-22T03:12:42.801Z,94829.00
2024-04-22T03:13:42.857Z,94829.00
2024-04-22T03:14:42.842Z,94828.00
2024-04-22T03:15:42.872Z,94828.00
2024-04-22T03:16:43.005Z,94828.00
2024-04-22T03:17:42.995Z,94827.00
2024-04-22T03:18:43.005Z,94827.00
2024-04-22T03:19:43.097Z,94827.00
2024-04-22T03:20:43.083Z,94827.00
2024-04-22T03:21:43.119Z,94825.00
2024-04-22T03:22:43.190Z,94828.00
2024-04-22T03:23:43.181Z,94827.00
2024-04-22T03:24:43.231Z,94829.00
2024-04-22T03:25:43.351Z,94828.00
2024-04-22T03:26:43.641Z,94828.00
2024-04-22T03:27:43.354Z,94827.00
2024-04-22T03:28:43.440Z,94827.00
2024-04-22T03:29:43.629Z,94827.00
2024-04-22T03:30:43.466Z,94828.00
2024-04-22T03:31:43.760Z,94827.00
2024-04-22T03:32:43.650Z,94824.00
2024-04-22T03:33:43.590Z,94825.00
2024-04-22T03:34:43.675Z,94824.00
2024-04-22T03:35:43.706Z,94824.00
2024-04-22T03:36:43.722Z,94823.00
2024-04-22T03:37:43.815Z,94823.00
2024-04-22T03:38:43.794Z,94823.00
2024-04-22T03:39:43.829Z,94824.00
2024-04-22T03:40:43.943Z,94824.00
2024-04-22T03:41:43.948Z,94825.00
2024-04-22T03:42:43.993Z,94823.00
2024-04-22T03:43:44.109Z,94826.00
2024-04-22T03:44:44.077Z,94825.00
2024-04-22T03:45:44.100Z,94822.00
2024-04-22T03:46:44.679Z,94822.00
2024-04-22T03:47:44.298Z,94823.00
2024-04-22T03:48:44.439Z,94824.00
2024-04-22T03:49:44.385Z,94822.00
2024-04-22T03:50:44.362Z,94822.00
2024-04-22T03:51:44.657Z,94821.00
2024-04-22T03:52:44.504Z,94822.00
2024-04-22T03:53:44.474Z,94821.00
2024-04-22T03:54:44.523Z,94821.00
2024-04-22T03:55:44.608Z,94820.00
2024-04-22T03:56:44.606Z,94820.00
2024-04-22T03:57:44.836Z,94820.00
2024-04-22T03:58:44.725Z,94821.00
2024-04-22T03:59:44.714Z,94820.00
2024-04-22T04:00:44.808Z,94822.00
2024-04-22T04:01:44.809Z,94817.00
2024-04-22T04:02:44.832Z,94819.00
2024-04-22T04:03:45.008Z,94817.00
2024-04-22T04:04:45.052Z,94818.00
2024-04-22T04:05:45.152Z,94817.00
2024-04-22T04:06:45.183Z,94816.00
2024-04-22T04:07:45.126Z,94817.00
2024-04-22T04:08:45.141Z,94817.00
2024-04-22T04:09:45.189Z,94816.00
2024-04-22T04:10:45.351Z,94815.00
2024-04-22T04:11:45.376Z,94816.00
2024-04-22T04:12:45.353Z,94816.00
2024-04-22T04:13:45.400Z,94816.00
2024-04-22T04:14:45.423Z,94813.00
2024-04-22T04:15:45.479Z,94814.00
2024-04-22T04:16:45.856Z,94816.00
2024-04-22T04:17:45.636Z,94817.00
2024-04-22T04:18:45.659Z,94818.00
2024-04-22T04:19:45.718Z,94816.00
2024-04-22T04:20:45.709Z,94816.00
2024-04-22T04:21:45.895Z,94816.00
2024-04-22T04:22:45.807Z,94816.00
2024-04-22T04:23:45.877Z,94819.00
2024-04-22T04:24:45.955Z,94816.00
2024-04-22T04:25:46.108Z,94818.00
2024-04-22T04:26:46.181Z,94819.00
2024-04-22T04:27:46.068Z,94817.00
2024-04-22T04:28:48.914Z,94820.00
2024-04-22T04:29:56.613Z,94818.00
2024-04-22T04:30:56.602Z,94819.00
2024-04-22T04:32:04.113Z,94820.00
2024-04-22T04:33:04.120Z,94821.00
2024-04-22T04:34:04.138Z,94821.00
2024-04-22T04:35:07.643Z,94822.00
2024-04-22T04:36:04.164Z,94824.00
2024-04-22T04:37:04.449Z,94823.00
2024-04-22T04:38:04.113Z,94824.00
2024-04-22T04:39:04.089Z,94824.00
2024-04-22T04:40:04.095Z,94826.00
2024-04-22T04:41:04.090Z,94826.00
2024-04-22T04:42:04.451Z,94826.00
2024-04-22T04:43:04.057Z,94826.00
2024-04-22T04:44:04.017Z,94828.00
2024-04-22T04:45:03.999Z,94828.00
2024-04-22T04:46:03.989Z,94830.00
2024-04-22T04:47:04.014Z,94830.00
2024-04-22T04:48:04.079Z,94830.00
2024-04-22T04:49:03.938Z,94830.00
2024-04-22T04:50:03.961Z,94830.00
2024-04-22T04:51:03.945Z,94828.00
2024-04-22T04:52:03.964Z,94827.00
2024-04-22T04:53:03.908Z,94826.00
2024-04-22T04:54:03.879Z,94826.00
2024-04-22T04:55:03.880Z,94825.00
2024-04-22T04:56:03.839Z,94824.00
2024-04-22T04:57:03.939Z,94825.00
2024-04-22T04:58:03.784Z,94826.00
2024-04-22T04:59:03.762Z,94825.00
2024-04-22T05:00:03.798Z,94827.00
2024-04-22T05:01:03.924Z,94825.00
2024-04-22T05:02:03.997Z,94825.00
2024-04-22T05:03:03.953Z,94828.00
2024-04-22T05:04:03.948Z,94828.00
2024-04-22T05:05:03.984Z,94826.00
2024-04-22T05:06:04.022Z,94827.00
2024-04-22T05:07:04.482Z,94827.00
2024-04-22T05:08:04.065Z,94828.00
2024-04-22T05:09:04.107Z,94826.00
2024-04-22T05:10:04.136Z,94825.00
2024-04-22T05:11:04.195Z,94823.00
2024-04-22T05:12:04.453Z,94823.00
2024-04-22T05:13:04.218Z,94824.00
2024-04-22T05:14:04.283Z,94822.00
2024-04-22T05:15:04.311Z,94820.00
2024-04-22T05:16:04.399Z,94819.00
2024-04-22T05:17:04.380Z,94820.00
2024-04-22T05:18:04.424Z,94820.00
2024-04-22T05:19:04.445Z,94818.00
2024-04-22T05:20:04.510Z,94821.00
2024-04-22T05:21:04.522Z,94818.00
2024-04-22T05:22:04.977Z,94818.00
2024-04-22T05:23:04.669Z,94818.00
2024-04-22T05:24:04.629Z,94817.00
2024-04-22T05:25:04.699Z,94818.00
2024-04-22T05:26:04.750Z,94817.00
2024-04-22T05:27:04.984Z,94816.00
2024-04-22T05:28:04.762Z,94818.00
2024-04-22T05:29:04.825Z,94819.00
2024-04-22T05:30:04.834Z,94820.00
2024-04-22T05:31:04.882Z,94820.00
2024-04-22T05:32:04.954Z,94817.00
2024-04-22T05:33:05.039Z,94817.00
2024-04-22T05:34:05.036Z,94816.00
2024-04-22T05:35:05.065Z,94817.00
2024-04-22T05:36:05.125Z,94817.00
2024-04-22T05:37:05.548Z,94816.00
2024-04-22T05:38:05.242Z,94816.00
2024-04-22T05:39:05.198Z,94814.00
2024-04-22T05:40:05.291Z,94815.00
2024-04-22T05:41:05.307Z,94815.00
2024-04-22T05:42:05.478Z,94813.00
2024-04-22T05:43:05.385Z,94815.00
2024-04-22T05:44:05.446Z,94811.00
2024-04-22T05:45:05.457Z,94813.00
2024-04-22T05:46:06.961Z,94814.00
2024-04-22T05:47:05.967Z,94814.00
2024-04-22T05:48:05.644Z,94815.00
2024-04-22T05:49:05.627Z,94816.00
2024-04-22T05:50:05.649Z,94817.00
2024-04-22T05:51:05.669Z,94815.00
2024-04-22T05:52:06.018Z,94817.00
2024-04-22T05:53:05.742Z,94817.00
2024-04-22T05:54:05.784Z,94818.00
2024-04-22T05:55:05.819Z,94818.00
2024-04-22T05:56:05.892Z,94817.00
2024-04-22T05:57:05.991Z,94816.00
2024-04-22T05:58:05.903Z,94817.00
2024-04-22T05:59:06.171Z,94816.00
2024-04-22T06:00:05.965Z,94818.00
2024-04-22T06:01:06.134Z,94819.00
2024-04-22T06:02:06.507Z,94819.00
2024-04-22T06:03:06.153Z,94821.00
2024-04-22T06:04:06.157Z,94821.00
2024-04-22T06:05:06.209Z,94819.00
2024-04-22T06:06:06.199Z,94820.00
2024-04-22T06:07:06.218Z,94821.00
2024-04-22T06:08:06.299Z,94825.00
2024-04-22T06:09:06.310Z,94823.00
2024-04-22T06:10:06.327Z,94825.00
2024-04-22T06:11:06.457Z,94826.00
2024-04-22T06:12:14.919Z,94827.00
2024-04-22T06:13:07.410Z,94829.00
2024-04-22T06:14:06.363Z,94830.00
2024-04-22T06:15:07.368Z,94829.00
2024-04-22T06:16:06.355Z,94833.00
2024-04-22T06:17:06.341Z,94833.00
2024-04-22T06:18:06.374Z,94831.00
2024-04-22T06:19:06.284Z,94831.00
2024-04-22T06:20:06.302Z,94835.00
2024-04-22T06:21:06.267Z,94834.00
2024-04-22T06:22:06.253Z,94835.00
2024-04-22T06:23:06.252Z,94836.00
2024-04-22T06:24:06.233Z,94835.00
2024-04-22T06:25:06.243Z,94837.00
2024-04-22T06:26:06.258Z,94838.00
2024-04-22T06:27:06.495Z,94837.00
2024-04-22T06:28:06.356Z,94840.00
2024-04-22T06:29:06.385Z,94838.00
2024-04-22T06:30:06.545Z,94838.00
2024-04-22T06:31:08.422Z,94838.00
2024-04-22T06:32:06.614Z,94839.00
2024-04-22T06:33:06.478Z,94837.00
2024-04-22T06:34:06.438Z,94835.00
2024-04-22T06:35:06.451Z,94837.00
2024-04-22T06:36:06.410Z,94837.00
2024-04-22T06:37:06.484Z,94839.00
2024-04-22T06:38:09.122Z,94840.00
2024-04-22T06:39:06.374Z,94841.00
2024-04-22T06:40:06.332Z,94839.00
2024-04-22T06:41:06.337Z,94841.00
2024-04-22T06:42:06.314Z,94841.00
2024-04-22T06:43:06.313Z,94844.00
2024-04-22T06:44:06.364Z,94844.00
2024-04-22T06:45:06.320Z,94843.00
2024-04-22T06:46:06.321Z,94841.00
2024-04-22T06:47:06.354Z,94841.00
2024-04-22T06:48:06.294Z,94841.00
2024-04-22T06:49:06.271Z,94843.00
2024-04-22T06:50:06.247Z,94842.00
2024-04-22T06:51:06.246Z,94840.00
2024-04-22T06:52:06.210Z,94840.00
2024-04-22T06:53:06.174Z,94840.00
2024-04-22T06:54:06.229Z,94841.00
2024-04-22T06:55:06.156Z,94841.00
2024-04-22T06:56:06.155Z,94842.00
2024-04-22T06:57:06.272Z,94841.00
2024-04-22T06:58:06.214Z,94841.00
2024-04-22T06:59:06.165Z,94840.00
2024-04-22T07:00:06.176Z,94841.00
2024-04-22T07:01:06.237Z,94843.00
2024-04-22T07:02:10.052Z,94841.00
2024-04-22T07:03:07.257Z,94836.00
2024-04-22T07:04:06.357Z,94836.00
2024-04-22T07:05:06.254Z,94837.00
2024-04-22T07:06:06.171Z,94834.00
2024-04-22T07:07:06.077Z,94836.00
2024-04-22T07:08:06.082Z,94835.00
2024-04-22T07:09:06.076Z,94834.00
2024-04-22T07:10:06.057Z,94833.00
2024-04-22T07:11:06.048Z,94835.00
2024-04-22T07:12:06.522Z,94840.00
2024-04-22T07:13:06.072Z,94839.00
2024-04-22T07:14:06.188Z,94839.00
2024-04-22T07:15:06.212Z,94837.00
2024-04-22T07:16:06.341Z,94837.00
2024-04-22T07:17:06.255Z,94836.00
2024-04-22T07:18:06.363Z,94840.00
2024-04-22T07:19:06.340Z,94841.00
2024-04-22T07:20:06.404Z,94842.00
2024-04-22T07:21:06.433Z,94842.00
2024-04-22T07:22:06.471Z,94841.00
2024-04-22T07:23:06.489Z,94841.00
2024-04-22T07:24:06.520Z,94840.00
2024-04-22T07:25:06.563Z,94840.00
2024-04-22T07:26:06.608Z,94838.00
2024-04-22T07:27:11.022Z,94838.00
2024-04-22T07:28:07.600Z,94838.00
2024-04-22T07:29:06.596Z,94838.00
2024-04-22T07:30:06.578Z,94838.00
2024-04-22T07:31:06.543Z,94838.00
2024-04-22T07:32:06.535Z,94839.00
2024-04-22T07:33:06.598Z,94837.00
2024-04-22T07:34:06.510Z,94837.00
2024-04-22T07:35:06.517Z,94841.00
2024-04-22T07:36:06.451Z,94834.00
2024-04-22T07:37:06.523Z,94836.00
2024-04-22T07:38:06.570Z,94835.00
2024-04-22T07:39:06.486Z,94836.00
2024-04-22T07:40:06.559Z,94834.00
2024-04-22T07:41:06.521Z,94836.00
2024-04-22T07:42:06.998Z,94834.00
2024-04-22T07:43:06.591Z,94835.00
2024-04-22T07:44:06.615Z,94839.00
2024-04-22T07:45:06.620Z,94840.00
2024-04-22T07:46:06.647Z,94842.00
2024-04-22T07:47:07.035Z,94841.00
2024-04-22T07:48:06.725Z,94847.00
2024-04-22T07:49:06.755Z,94839.00
2024-04-22T07:50:06.760Z,94842.00
2024-04-22T07:51:06.808Z,94839.00
2024-04-22T07:52:07.041Z,94843.00
2024-04-22T07:53:06.874Z,94839.00
2024-04-22T07:54:06.844Z,94839.00
2024-04-22T07:55:06.864Z,94835.00
2024-04-22T07:56:06.897Z,94837.00
2024-04-22T07:57:07.026Z,94837.00
2024-04-22T07:58:06.890Z,94838.00
2024-04-22T07:59:06.887Z,94837.00
2024-04-22T08:00:06.927Z,94835.00
2024-04-22T08:01:06.889Z,94833.00
2024-04-22T08:02:06.852Z,94835.00
2024-04-22T08:03:06.875Z,94835.00
2024-04-22T08:04:07.152Z,94833.00
2024-04-22T08:05:06.819Z,94833.00
2024-04-22T08:06:06.870Z,94833.00
2024-04-22T08:07:06.864Z,94833.00
2024-04-22T08:08:06.779Z,94833.00
2024-04-22T08:09:06.741Z,94831.00
2024-04-22T08:10:06.929Z,94829.00
2024-04-22T08:11:06.828Z,94829.00
2024-04-22T08:12:06.783Z,94828.00
2024-04-22T08:13:06.837Z,94828.00
2024-04-22T08:14:06.828Z,94828.00
2024-04-22T08:15:07.504Z,94830.00
2024-04-22T08:16:06.922Z,94829.00
2024-04-22T08:17:07.137Z,94832.00
2024-04-22T08:18:06.918Z,94831.00
2024-04-22T08:19:07.047Z,94830.00
2024-04-22T08:20:06.871Z,94830.00
2024-04-22T08:21:06.927Z,94828.00
2024-04-22T08:22:07.010Z,94830.00
2024-04-22T08:23:07.526Z,94827.00
2024-04-22T08:24:07.064Z,94827.00
2024-04-22T08:25:07.049Z,94826.00
2024-04-22T08:26:07.103Z,94823.00
2024-04-22T08:27:07.551Z,94824.00
2024-04-22T08:28:07.173Z,94825.00
2024-04-22T08:29:07.228Z,94825.00
2024-04-22T08:30:07.292Z,94826.00
2024-04-22T08:31:07.278Z,94823.00
2024-04-22T08:32:07.307Z,94824.00
2024-04-22T08:33:07.453Z,94828.00
2024-04-22T08:34:07.363Z,94824.00
2024-04-22T08:35:07.372Z,94824.00
2024-04-22T08:36:07.389Z,94825.00
2024-04-22T08:37:07.540Z,94826.00
2024-04-22T08:38:07.467Z,94824.00
2024-04-22T08:39:07.453Z,94825.00
2024-04-22T08:40:07.529Z,94828.00
2024-04-22T08:41:07.555Z,94827.00
2024-04-22T08:42:08.015Z,94827.00
2024-04-22T08:43:07.594Z,94827.00
2024-04-22T08:44:07.601Z,94823.00
2024-04-22T08:45:07.560Z,94825.00
2024-04-22T08:46:07.596Z,94822.00
2024-04-22T08:47:07.687Z,94820.00
2024-04-22T08:48:07.690Z,94819.00
2024-04-22T08:49:07.658Z,94819.00
2024-04-22T08:50:07.662Z,94814.00
2024-04-22T08:51:07.715Z,94815.00
2024-04-22T08:52:07.882Z,94815.00
2024-04-22T08:53:07.853Z,94815.00
2024-04-22T08:54:07.788Z,94814.00
2024-04-22T08:55:07.811Z,94814.00
2024-04-22T08:56:07.866Z,94815.00
2024-04-22T08:57:08.042Z,94816.00
2024-04-22T08:58:07.928Z,94813.00
2024-04-22T08:59:13.727Z,94813.00
2024-04-22T09:00:08.927Z,94813.00
2024-04-22T09:01:07.966Z,94809.00
2024-04-22T09:02:07.944Z,94808.00
2024-04-22T09:03:08.670Z,94808.00
2024-04-22T09:04:08.579Z,94807.00
2024-04-22T09:05:09.210Z,94806.00
2024-04-22T09:06:08.030Z,94804.00
2024-04-22T09:07:07.748Z,94805.00
2024-04-22T09:08:07.820Z,94803.00
2024-04-22T09:09:08.836Z,94805.00
2024-04-22T09:10:34.860Z,94802.00
2024-04-22T09:11:36.383Z,94800.00
2024-04-22T09:12:11.049Z,94798.00
2024-04-22T09:13:08.074Z,94799.00
2024-04-22T09:14:07.734Z,94792.00
2024-04-22T09:15:07.901Z,94796.00
2024-04-22T09:16:07.753Z,94791.00
2024-04-22T09:17:07.583Z,94789.00
2024-04-22T09:18:08.239Z,94790.00
2024-04-22T09:19:07.509Z,94793.00
2024-04-22T09:20:07.432Z,94792.00
2024-04-22T09:21:08.122Z,94791.00
2024-04-22T09:22:07.285Z,94791.00
2024-04-22T09:23:07.438Z,94790.00
2024-04-22T09:24:07.328Z,94789.00
2024-04-22T09:25:07.209Z,94787.00
2024-04-22T09:26:07.444Z,94786.00
2024-04-22T09:27:07.317Z,94783.00
2024-04-22T09:28:07.269Z,94783.00
2024-04-22T09:29:07.150Z,94784.00
2024-04-22T09:30:07.103Z,94786.00
2024-04-22T09:31:07.229Z,94785.00
2024-04-22T09:32:07.258Z,94787.00
2024-04-22T09:33:07.181Z,94787.00
2024-04-22T09:34:07.178Z,94788.00
2024-04-22T09:35:10.633Z,94789.00
2024-04-22T09:36:07.995Z,94795.00
2024-04-22T09:37:06.864Z,94795.00
2024-04-22T09:38:06.893Z,94796.00
2024-04-22T09:39:06.971Z,94798.00
2024-04-22T09:40:06.784Z,94799.00
2024-04-22T09:41:07.439Z,94799.00
2024-04-22T09:42:06.847Z,94801.00
2024-04-22T09:43:07.152Z,94803.00
2024-04-22T09:44:10.601Z,94801.00
2024-04-22T09:45:07.525Z,94796.00
2024-04-22T09:46:06.752Z,94798.00
2024-04-22T09:47:06.690Z,94799.00
2024-04-22T09:48:06.734Z,94792.00
2024-04-22T09:49:06.420Z,94790.00
2024-04-22T09:50:06.539Z,94792.00
2024-04-22T09:51:06.429Z,94790.00
2024-04-22T09:52:06.180Z,94789.00
2024-04-22T09:53:06.766Z,94790.00
2024-04-22T09:54:06.122Z,94790.00
2024-04-22T09:55:06.265Z,94789.00
2024-04-22T09:56:06.178Z,94790.00
2024-04-22T09:57:06.038Z,94787.00
2024-04-22T09:58:06.228Z,94786.00
2024-04-22T09:59:06.305Z,94787.00
2024-04-22T10:00:06.005Z,94790.00
2024-04-22T10:01:05.999Z,94790.00
2024-04-22T10:02:06.884Z,94793.00
2024-04-22T10:03:06.311Z,94795.00
2024-04-22T10:04:06.088Z,94794.00
2024-04-22T10:05:07.181Z,94790.00
2024-04-22T10:06:06.090Z,94790.00
2024-04-22T10:07:06.008Z,94789.00
2024-04-22T10:08:06.251Z,94790.00
2024-04-22T10:09:05.962Z,94789.00
2024-04-22T10:10:05.922Z,94784.00
2024-04-22T10:11:06.065Z,94783.00
2024-04-22T10:12:06.234Z,94783.00
2024-04-22T10:13:05.887Z,94783.00
2024-04-22T10:14:06.315Z,94780.00
2024-04-22T10:15:05.866Z,94781.00
2024-04-22T10:16:05.814Z,94783.00
2024-04-22T10:17:05.921Z,94775.00
2024-04-22T10:18:09.094Z,94775.00
2024-04-22T10:19:06.120Z,94772.00
2024-04-22T10:20:05.894Z,94774.00
2024-04-22T10:21:06.029Z,94774.00
2024-04-22T10:22:05.978Z,94773.00
2024-04-22T10:23:06.337Z,94772.00
2024-04-22T10:24:05.823Z,94769.00
2024-04-22T10:25:05.886Z,94771.00
2024-04-22T10:26:05.786Z,94769.00
2024-04-22T10:27:11.343Z,94772.00
2024-04-22T10:28:06.763Z,94770.00
2024-04-22T10:29:05.771Z,94769.00
2024-04-22T10:30:08.749Z,94763.00
2024-04-22T10:31:05.904Z,94764.00
2024-04-22T10:32:05.830Z,94765.00
2024-04-22T10:33:05.873Z,94763.00
2024-04-22T10:34:05.673Z,94765.00
2024-04-22T10:35:05.750Z,94762.00
2024-04-22T10:36:06.632Z,94759.00
2024-04-22T10:37:05.606Z,94761.00
2024-04-22T10:38:05.616Z,94759.00
2024-04-22T10:39:05.567Z,94758.00
2024-04-22T10:40:05.576Z,94758.00
2024-04-22T10:41:05.573Z,94753.00
2024-04-22T10:42:05.545Z,94752.00
2024-04-22T10:43:05.569Z,94754.00
2024-04-22T10:44:05.414Z,94754.00
2024-04-22T10:45:05.399Z,94755.00
2024-04-22T10:46:05.396Z,94746.00
2024-04-22T10:47:05.358Z,94752.00
2024-04-22T10:48:12.390Z,94744.00
2024-04-22T10:49:06.369Z,94741.00
2024-04-22T10:50:05.274Z,94742.00
2024-04-22T10:51:05.229Z,94740.00
2024-04-22T10:52:05.212Z,94740.00
2024-04-22T10:53:05.986Z,94739.00
2024-04-22T10:54:05.137Z,94736.00
2024-04-22T10:55:05.116Z,94739.00
2024-04-22T10:56:05.103Z,94734.00
2024-04-22T10:57:05.054Z,94735.00
2024-04-22T10:58:05.001Z,94735.00
2024-04-22T10:59:05.017Z,94738.00
2024-04-22T11:00:04.979Z,94731.00
2024-04-22T11:01:05.100Z,94731.00
2024-04-22T11:02:05.352Z,94730.00
2024-04-22T11:03:05.122Z,94730.00
2024-04-22T11:04:05.102Z,94732.00
2024-04-22T11:05:05.195Z,94729.00
2024-04-22T11:06:05.136Z,94733.00
2024-04-22T11:07:05.128Z,94733.00
2024-04-22T11:08:05.623Z,94731.00
2024-04-22T11:09:05.131Z,94728.00
2024-04-22T11:10:05.179Z,94731.00
2024-04-22T11:11:05.200Z,94729.00
2024-04-22T11:12:05.200Z,94733.00
2024-04-22T11:13:05.214Z,94734.00
2024-04-22T11:14:05.212Z,94731.00
2024-04-22T11:15:05.276Z,94732.00
2024-04-22T11:16:05.330Z,94731.00
2024-04-22T11:17:05.383Z,94728.00
2024-04-22T11:18:05.576Z,94731.00
2024-04-22T11:19:07.121Z,94734.00
2024-04-22T11:20:05.441Z,94730.00
2024-04-22T11:21:05.463Z,94727.00
2024-04-22T11:22:05.543Z,94731.00
2024-04-22T11:23:05.602Z,94729.00
2024-04-22T11:24:05.610Z,94730.00
2024-04-22T11:25:06.329Z,94728.00
2024-04-22T11:26:05.661Z,94724.00
2024-04-22T11:27:05.651Z,94725.00
2024-04-22T11:28:05.719Z,94725.00
2024-04-22T11:29:05.704Z,94722.00
2024-04-22T11:30:05.759Z,94720.00
2024-04-22T11:31:05.739Z,94719.00
2024-04-22T11:32:05.809Z,94717.00
2024-04-22T11:33:05.837Z,94715.00
2024-04-22T11:34:05.731Z,94715.00
2024-04-22T11:35:05.694Z,94713.00
2024-04-22T11:36:05.742Z,94715.00
2024-04-22T11:37:05.736Z,94718.00
2024-04-22T11:38:05.743Z,94715.00
2024-04-22T11:39:05.794Z,94720.00
2024-04-22T11:40:05.761Z,94715.00
2024-04-22T11:41:05.813Z,94721.00
2024-04-22T11:42:05.808Z,94721.00
2024-04-22T11:43:06.100Z,94717.00
2024-04-22T11:44:05.819Z,94718.00
2024-04-22T11:45:06.776Z,94719.00